San Diego Montgomery Field Airport

About
Name: San Diego Montgomery Field Airport
Identifier:  MYF/KMYF
Operator:  City of San Diego
Public/Private:  Public
Local Time:  15. Sep 06:53 PDT
Description: Montgomery-Gibbs Executive Airport, formerly known as Montgomery Field and Gibbs Field, is a public airport in San Diego, California, United States, six miles north of downtown San Diego. The airport covers 456 acres and has three runways, one public and two private helipads. The runways are 28 Right/10 Left-28 Left/10 Right parallels and 5/23.
Source: Wikipedia
Location
Runways
Identifier Length (m/ft) Surface
5/23 1,036/3,400 Asphalt
10L/28R 1,401/4,598 Asphalt
10R/28L 1,037/3,401 Asphalt
Statistics
Flights per Day:
0 flights
Distance: 146km (90mi)
Flights delayed:
0% (0 flights per day delayed)
Delay Average: 90 minutes
Current Weather
 19 C (Humidity: 63%)
  3kt (5km/h / 3mph) from 50°
  16km (10 mi.)
 
 METAR KMYF 151253Z AUTO 05003KT 10SM CLR 19/12 A2987 RMK AO2 SLP109 T01890122

Current Delays

Departures
N/A
Arrivals
N/A

Destinations

Top Destinations
Airport Flights
per week
Seats
per week
  Imperial (IPL) 0 - 0 0

Airlines & Planes

Top Airlines
Airline Flights
per Day
Seats
per Day
Reach Air Medical Services 0 -
Top Plane Types
Model Flights Seats